Time;durP1;ratioP1;P1;durP2;ratioP2;P2;SDS_P1;SDS_P2;PMS_P1;PMS_P2;Temp;Humidity;BMP_temperature;BMP_pressure;BME280_temperature;BME280_humidity;BME280_pressure;Samples;Min_cycle;Max_cycle;Signal;HPM_P1;HPM_P2
2022/11/17 00:01:42;;;;;;;7.55;4.40;;;19.50;58.40;;;;;;6268433;28;20067;-69
2022/11/17 00:04:43;;;;;;;6.80;3.92;;;19.50;58.40;;;;;;6268388;28;20044;-68
2022/11/17 00:07:44;;;;;;;6.13;3.72;;;19.50;58.40;;;;;;6268295;28;20303;-69
2022/11/17 00:10:45;;;;;;;8.15;4.05;;;19.50;58.30;;;;;;6268712;28;20066;-68
2022/11/17 00:17:12;;;;;;;5.95;3.90;;;19.50;58.30;;;;;;6268243;28;20033;-69
2022/11/17 00:23:53;;;;;;;6.18;3.53;;;19.50;58.40;;;;;;6268304;28;20025;-69
2022/11/17 00:27:02;;;;;;;7.20;3.90;;;19.50;58.40;;;;;;6268130;28;20044;-69
2022/11/17 00:30:03;;;;;;;6.60;3.22;;;19.50;58.40;;;;;;6268014;28;20503;-69
2022/11/17 00:36:24;;;;;;;6.82;3.60;;;19.50;58.30;;;;;;6267210;28;20021;-68
2022/11/17 00:39:25;;;;;;;5.68;3.38;;;19.50;58.40;;;;;;6268244;28;20658;-68
2022/11/17 00:42:26;;;;;;;6.60;3.58;;;19.50;58.40;;;;;;6267197;28;20168;-68
2022/11/17 00:45:26;;;;;;;5.68;3.13;;;19.50;58.50;;;;;;6267736;28;20021;-68
2022/11/17 00:48:27;;;;;;;6.68;3.45;;;19.50;58.30;;;;;;6268284;28;20024;-68
2022/11/17 00:51:27;;;;;;;5.40;3.20;;;19.50;58.40;;;;;;6267668;28;20492;-69
2022/11/17 00:54:28;;;;;;;6.75;3.63;;;19.50;58.30;;;;;;6267598;28;20088;-67
2022/11/17 00:57:29;;;;;;;6.97;3.50;;;19.50;58.40;;;;;;6267212;28;20302;-68
2022/11/17 01:00:29;;;;;;;6.45;3.20;;;19.50;58.40;;;;;;6267035;28;20029;-69
2022/11/17 01:03:30;;;;;;;4.75;3.05;;;19.50;58.40;;;;;;6267392;28;20048;-68
2022/11/17 01:06:32;;;;;;;5.28;3.13;;;19.50;58.30;;;;;;6267382;28;20052;-69
2022/11/17 01:09:33;;;;;;;6.30;2.83;;;19.50;58.40;;;;;;6267463;28;20498;-69
2022/11/17 01:12:33;;;;;;;6.07;3.38;;;19.50;58.40;;;;;;6266480;28;20013;-68
2022/11/17 01:15:34;;;;;;;6.55;3.28;;;19.50;58.30;;;;;;6267809;28;20077;-68
2022/11/17 01:18:35;;;;;;;6.85;3.47;;;19.50;58.30;;;;;;6267065;28;20052;-68
2022/11/17 01:21:35;;;;;;;4.22;3.10;;;19.50;58.30;;;;;;6267812;28;20063;-67
2022/11/17 01:24:36;;;;;;;3.42;2.58;;;19.50;58.30;;;;;;6267096;28;20132;-67
2022/11/17 01:27:37;;;;;;;5.22;3.22;;;19.50;58.40;;;;;;6267793;28;20029;-69
2022/11/17 01:30:37;;;;;;;4.78;2.90;;;19.50;58.30;;;;;;6267379;28;20535;-68
2022/11/17 01:33:39;;;;;;;4.68;3.00;;;19.50;58.30;;;;;;6266541;28;20083;-68
2022/11/17 01:40:00;;;;;;;4.47;2.90;;;19.50;58.30;;;;;;6267327;28;20112;-67
2022/11/17 01:43:03;;;;;;;4.28;2.88;;;19.50;58.20;;;;;;6266984;28;20060;-68
2022/11/17 01:46:10;;;;;;;4.55;2.75;;;19.50;58.30;;;;;;6267007;28;20468;-69
2022/11/17 01:49:20;;;;;;;6.68;3.15;;;19.50;58.30;;;;;;6267614;28;20051;-69
2022/11/17 01:52:23;;;;;;;5.03;2.80;;;19.50;58.30;;;;;;6266733;28;20056;-69
2022/11/17 01:55:27;;;;;;;3.35;2.42;;;19.50;58.20;;;;;;6267132;28;20033;-69
2022/11/17 01:58:35;;;;;;;4.63;2.90;;;19.50;58.20;;;;;;6266977;28;20017;-69
2022/11/17 02:01:54;;;;;;;3.85;2.60;;;19.50;58.30;;;;;;6267036;28;20361;-68
2022/11/17 02:05:35;;;;;;;3.53;2.30;;;19.50;58.30;;;;;;6266938;28;20468;-68
2022/11/17 02:08:38;;;;;;;4.30;2.70;;;19.50;58.30;;;;;;6251095;28;20122;-69
2022/11/17 02:11:39;;;;;;;5.63;2.75;;;19.50;58.30;;;;;;6267913;28;20523;-68
2022/11/17 02:14:40;;;;;;;4.93;2.67;;;19.50;58.20;;;;;;6271018;28;20045;-68
2022/11/17 02:17:41;;;;;;;4.03;2.65;;;19.50;58.20;;;;;;6271869;28;20463;-68
2022/11/17 02:20:52;;;;;;;5.35;2.38;;;19.50;58.20;;;;;;6271613;28;20087;-68
2022/11/17 02:24:29;;;;;;;3.83;2.45;;;19.50;58.40;;;;;;6270626;28;20387;-69
2022/11/17 02:28:00;;;;;;;3.83;2.33;;;19.50;58.20;;;;;;6270402;28;20033;-67
2022/11/17 02:31:09;;;;;;;4.32;2.38;;;19.50;58.20;;;;;;6271305;28;20029;-68
2022/11/17 02:34:41;;;;;;;3.00;2.33;;;19.50;58.20;;;;;;6270896;28;20063;-69
2022/11/17 02:38:13;;;;;;;3.30;2.00;;;19.50;58.20;;;;;;6270299;28;20028;-68
2022/11/17 02:41:25;;;;;;;3.60;2.25;;;19.50;58.20;;;;;;6270213;28;20041;-68
2022/11/17 02:44:59;;;;;;;3.50;2.25;;;19.50;58.10;;;;;;6270593;28;20024;-69
2022/11/17 02:48:04;;;;;;;3.30;2.17;;;19.50;58.20;;;;;;6270338;28;20021;-69
2022/11/17 02:51:09;;;;;;;3.30;2.42;;;19.50;58.00;;;;;;6270569;28;20507;-69
2022/11/17 02:54:10;;;;;;;;;;;19.50;58.20;;;;;;6270743;28;20037;-68
2022/11/17 02:57:31;;;;;;;4.57;2.60;;;19.50;58.20;;;;;;6270047;28;19905;-68
2022/11/17 03:00:36;;;;;;;3.22;2.30;;;19.50;58.20;;;;;;6245533;28;20026;-69
2022/11/17 03:03:52;;;;;;;4.28;2.10;;;19.50;58.20;;;;;;6255209;28;20061;-68
2022/11/17 03:07:15;;;;;;;3.75;1.92;;;19.50;58.10;;;;;;6270083;28;20083;-69
2022/11/17 03:10:45;;;;;;;2.72;1.77;;;19.50;58.20;;;;;;6269687;28;20079;-69
2022/11/17 03:14:09;;;;;;;2.83;2.05;;;19.50;58.20;;;;;;6269563;28;20112;-68
2022/11/17 03:17:17;;;;;;;4.28;2.42;;;19.50;58.20;;;;;;6269767;28;20037;-68
2022/11/17 03:20:23;;;;;;;2.83;1.90;;;19.50;58.20;;;;;;6269615;28;20025;-68
2022/11/17 03:23:40;;;;;;;3.17;2.10;;;19.50;58.20;;;;;;6268752;28;20037;-68
2022/11/17 03:26:52;;;;;;;2.95;1.95;;;19.50;58.10;;;;;;6269490;28;20125;-67
2022/11/17 03:30:01;;;;;;;2.40;1.83;;;19.50;58.20;;;;;;6269473;28;20451;-68
2022/11/17 03:33:08;;;;;;;3.45;2.05;;;19.50;58.10;;;;;;6269358;28;20025;-68
2022/11/17 03:36:14;;;;;;;3.42;2.05;;;19.50;58.10;;;;;;6269165;28;20036;-68
2022/11/17 03:39:22;;;;;;;2.55;1.70;;;19.50;58.00;;;;;;6268998;28;20029;-69
2022/11/17 03:42:33;;;;;;;3.08;2.00;;;19.50;58.10;;;;;;6269325;28;20027;-68
2022/11/17 03:45:38;;;;;;;2.42;1.77;;;19.50;58.20;;;;;;6268836;28;20063;-69
2022/11/17 03:48:54;;;;;;;3.33;2.00;;;19.50;58.10;;;;;;6268570;28;20025;-68
2022/11/17 03:51:55;;;;;;;3.33;2.03;;;19.50;58.10;;;;;;6269253;28;20085;-69
2022/11/17 03:54:56;;;;;;;3.13;2.00;;;19.50;58.10;;;;;;6268858;28;20045;-70
2022/11/17 03:58:13;;;;;;;2.92;1.95;;;19.50;58.00;;;;;;6269425;28;20386;-68
2022/11/17 04:01:14;;;;;;;2.80;1.88;;;19.50;58.20;;;;;;6268516;28;20036;-68
2022/11/17 04:04:16;;;;;;;2.80;1.77;;;19.50;58.10;;;;;;6269010;28;20032;-69
2022/11/17 04:07:17;;;;;;;3.25;1.77;;;19.50;58.00;;;;;;6268645;28;20383;-69
2022/11/17 04:10:20;;;;;;;3.22;1.90;;;19.50;58.10;;;;;;6268130;28;20082;-70
2022/11/17 04:16:40;;;;;;;2.85;1.70;;;19.50;58.10;;;;;;6243975;28;20480;-69
2022/11/17 04:19:41;;;;;;;2.47;1.75;;;19.50;58.10;;;;;;6251333;28;20062;-69
2022/11/17 04:22:42;;;;;;;3.35;2.00;;;19.50;58.10;;;;;;6268507;28;20028;-69
2022/11/17 04:29:04;;;;;;;2.20;1.70;;;19.50;58.10;;;;;;6268957;28;20025;-69
2022/11/17 04:32:04;;;;;;;3.03;1.80;;;19.50;58.10;;;;;;6267591;28;20515;-68
2022/11/17 04:35:06;;;;;;;3.00;1.95;;;19.50;58.10;;;;;;6266733;28;20024;-69
2022/11/17 04:38:06;;;;;;;3.05;1.77;;;19.50;58.10;;;;;;6267950;28;20056;-69
2022/11/17 04:44:31;;;;;;;3.28;1.80;;;19.50;58.10;;;;;;6268077;28;20452;-68
2022/11/17 04:47:32;;;;;;;2.70;1.67;;;19.50;58.20;;;;;;6267739;28;20419;-69
2022/11/17 04:50:33;;;;;;;1.80;1.50;;;19.50;58.10;;;;;;6267624;28;20025;-69
2022/11/17 04:53:33;;;;;;;2.53;1.80;;;19.50;58.00;;;;;;6267566;28;20067;-69
2022/11/17 04:56:34;;;;;;;2.97;1.92;;;19.50;58.10;;;;;;6267555;28;20024;-68
2022/11/17 05:03:33;;;;;;;2.13;1.55;;;19.50;58.10;;;;;;6267698;28;20033;-69
2022/11/17 05:06:42;;;;;;;2.03;1.55;;;19.50;58.10;;;;;;6267416;28;20044;-68
2022/11/17 05:09:42;;;;;;;1.60;1.42;;;19.50;58.10;;;;;;6266847;28;20021;-69
2022/11/17 05:19:23;;;;;;;2.03;1.70;;;19.50;58.00;;;;;;6267125;28;20049;-68
2022/11/17 05:25:43;;;;;;;2.40;1.60;;;19.50;58.10;;;;;;6267067;28;20104;-68
2022/11/17 05:28:44;;;;;;;2.20;1.50;;;19.50;58.10;;;;;;6267060;28;20054;-68
2022/11/17 05:31:45;;;;;;;2.47;1.92;;;19.50;58.10;;;;;;6267242;28;20032;-69
2022/11/17 05:34:46;;;;;;;2.80;1.90;;;19.50;58.10;;;;;;6267644;28;20123;-68
2022/11/17 05:37:46;;;;;;;3.03;1.60;;;19.50;58.70;;;;;;6266867;28;20035;-68
2022/11/17 05:40:47;;;;;;;3.88;1.60;;;19.50;58.10;;;;;;6266739;28;20063;-69
2022/11/17 05:43:49;;;;;;;1.85;1.60;;;19.50;58.10;;;;;;6266933;28;20033;-69
2022/11/17 05:46:49;;;;;;;2.67;1.90;;;19.50;58.00;;;;;;6268455;28;20032;-68
2022/11/17 05:49:50;;;;;;;2.30;1.60;;;19.50;58.20;;;;;;6271305;28;20393;-69
2022/11/17 05:52:50;;;;;;;2.42;1.65;;;19.50;58.10;;;;;;6271565;28;20277;-68
2022/11/17 05:56:06;;;;;;;1.90;1.52;;;19.50;58.00;;;;;;6271782;28;20060;-69
2022/11/17 05:59:17;;;;;;;2.00;1.50;;;19.50;58.10;;;;;;6272201;28;20139;-69
2022/11/17 06:02:24;;;;;;;1.30;1.20;;;19.50;58.10;;;;;;6253382;28;20392;-69
2022/11/17 06:05:24;;;;;;;2.45;1.60;;;19.50;58.10;;;;;;6261292;28;20051;-69
2022/11/17 06:08:27;;;;;;;2.50;1.50;;;19.50;58.10;;;;;;6268726;28;20033;-69
2022/11/17 06:11:29;;;;;;;2.90;1.48;;;19.50;58.10;;;;;;6269506;28;20048;-68
2022/11/17 06:14:30;;;;;;;3.28;1.65;;;19.50;58.10;;;;;;6269689;28;20698;-69
2022/11/17 06:17:41;;;;;;;2.47;1.83;;;19.50;58.00;;;;;;6261704;28;20021;-68
2022/11/17 06:20:47;;;;;;;2.15;1.70;;;19.50;58.00;;;;;;6267360;28;20404;-68
2022/11/17 06:23:48;;;;;;;1.90;1.40;;;19.50;58.00;;;;;;6270991;28;20483;-69
2022/11/17 06:26:49;;;;;;;2.50;1.67;;;19.50;58.00;;;;;;6269304;28;20030;-67
2022/11/17 06:29:50;;;;;;;1.65;1.40;;;19.50;58.00;;;;;;6270503;28;20025;-69
2022/11/17 06:32:52;;;;;;;1.90;1.55;;;19.50;58.10;;;;;;6270445;28;20032;-67
2022/11/17 06:35:52;;;;;;;3.70;1.50;;;19.50;58.00;;;;;;6270062;28;20020;-68
2022/11/17 06:38:53;;;;;;;2.20;1.77;;;19.50;58.10;;;;;;6270117;28;20354;-67
2022/11/17 06:41:54;;;;;;;2.33;1.70;;;19.50;57.80;;;;;;6270537;28;20021;-68
2022/11/17 06:44:54;;;;;;;2.55;1.50;;;19.60;57.90;;;;;;6269294;28;20021;-67
2022/11/17 06:47:55;;;;;;;4.53;1.83;;;19.50;58.00;;;;;;6268616;28;20053;-68
2022/11/17 06:50:55;;;;;;;2.10;1.63;;;19.50;58.10;;;;;;6269269;28;20025;-69
2022/11/17 06:53:56;;;;;;;2.38;1.70;;;19.50;58.00;;;;;;6261216;28;20033;-69
2022/11/17 06:56:57;;;;;;;2.47;1.60;;;19.50;58.10;;;;;;6269074;28;20051;-68
2022/11/17 06:59:58;;;;;;;1.88;1.60;;;19.50;58.20;;;;;;6259068;28;20028;-69
2022/11/17 07:03:03;;;;;;;1.45;1.35;;;19.50;58.20;;;;;;6260286;28;20025;-69
2022/11/17 07:06:04;;;;;;;;;;;19.50;58.10;;;;;;6272023;28;20087;-69
2022/11/17 07:09:05;;;;;;;2.83;1.80;;;19.50;58.20;;;;;;6271589;28;19905;-68
2022/11/17 07:12:06;;;;;;;2.53;1.58;;;19.50;58.10;;;;;;6261136;28;20079;-68
2022/11/17 07:15:07;;;;;;;3.47;1.60;;;19.60;57.90;;;;;;6271364;28;20492;-68
2022/11/17 07:18:07;;;;;;;2.38;1.35;;;19.60;57.90;;;;;;6270885;28;20025;-68
2022/11/17 07:21:10;;;;;;;1.83;1.58;;;19.60;57.80;;;;;;6270647;28;20064;-68
2022/11/17 07:24:11;;;;;;;2.25;1.50;;;19.60;57.80;;;;;;6271206;28;20032;-67
2022/11/17 07:27:11;;;;;;;2.17;1.42;;;19.70;57.80;;;;;;6270325;28;20029;-68
2022/11/17 07:30:12;;;;;;;1.90;1.40;;;19.70;57.60;;;;;;6271095;28;20029;-69
2022/11/17 07:33:13;;;;;;;3.05;1.80;;;19.70;57.80;;;;;;6270362;28;20033;-68
2022/11/17 07:36:14;;;;;;;1.92;1.40;;;19.60;57.80;;;;;;6270882;28;20032;-69
2022/11/17 07:39:14;;;;;;;1.52;1.25;;;19.60;58.00;;;;;;6271030;28;20104;-69
2022/11/17 07:42:15;;;;;;;2.88;1.80;;;19.60;58.10;;;;;;6270738;28;20029;-68
2022/11/17 07:45:15;;;;;;;3.25;1.73;;;19.60;58.10;;;;;;6270831;28;20021;-68
2022/11/17 07:48:16;;;;;;;2.72;1.63;;;19.60;58.10;;;;;;6270437;28;20051;-69
2022/11/17 07:51:17;;;;;;;2.40;1.85;;;19.60;58.20;;;;;;6270489;28;20403;-69
2022/11/17 07:54:17;;;;;;;5.60;1.50;;;19.60;58.20;;;;;;6270285;28;20058;-68
2022/11/17 07:57:20;;;;;;;2.95;1.48;;;19.60;58.20;;;;;;6266366;28;20026;-69
2022/11/17 08:00:21;;;;;;;2.58;1.77;;;19.60;58.20;;;;;;6270628;28;20021;-69
2022/11/17 08:03:21;;;;;;;2.00;1.40;;;19.60;58.20;;;;;;6265060;28;20079;-69
2022/11/17 08:06:23;;;;;;;4.28;1.70;;;19.60;58.20;;;;;;6249485;28;20029;-68
2022/11/17 08:09:23;;;;;;;2.13;1.73;;;19.60;58.20;;;;;;6268176;28;20805;-69
2022/11/17 08:12:24;;;;;;;2.30;1.45;;;19.50;58.20;;;;;;6269787;28;20088;-68
2022/11/17 08:15:24;;;;;;;2.67;1.70;;;19.50;58.20;;;;;;6269693;28;20047;-69
2022/11/17 08:18:25;;;;;;;1.77;1.45;;;19.50;58.20;;;;;;6269624;28;20114;-69
2022/11/17 08:21:26;;;;;;;2.22;1.40;;;19.50;58.20;;;;;;6269281;28;20464;-68
2022/11/17 08:24:27;;;;;;;1.98;1.48;;;19.50;58.20;;;;;;6269483;28;20074;-68
2022/11/17 08:27:27;;;;;;;2.08;1.40;;;19.50;58.20;;;;;;6269437;28;20399;-68
2022/11/17 08:30:29;;;;;;;2.70;1.52;;;19.50;58.20;;;;;;6269608;28;20037;-69
2022/11/17 08:33:30;;;;;;;1.65;1.33;;;19.50;58.20;;;;;;6269292;28;20060;-69
2022/11/17 08:36:31;;;;;;;2.10;1.50;;;19.50;58.20;;;;;;6268989;28;20035;-68
2022/11/17 08:39:31;;;;;;;2.05;1.27;;;19.50;58.20;;;;;;6269672;28;20021;-68
2022/11/17 08:42:32;;;;;;;4.25;1.20;;;19.50;58.20;;;;;;6268927;28;20025;-69
2022/11/17 08:45:32;;;;;;;2.95;1.67;;;19.50;58.10;;;;;;6270438;28;20029;-69
2022/11/17 08:48:33;;;;;;;3.50;1.60;;;19.60;58.00;;;;;;6270585;28;20021;-69
2022/11/17 08:51:34;;;;;;;3.95;2.03;;;19.60;58.20;;;;;;6270621;28;20053;-69
2022/11/17 08:54:34;;;;;;;8.68;1.70;;;19.60;58.10;;;;;;6270746;28;20039;-69
2022/11/17 08:57:36;;;;;;;4.13;1.73;;;19.60;58.20;;;;;;6268216;28;20025;-69
2022/11/17 09:00:36;;;;;;;3.85;1.58;;;19.60;58.20;;;;;;6259266;28;20038;-69
2022/11/17 09:03:37;;;;;;;3.28;1.63;;;19.60;58.10;;;;;;6246979;28;20431;-69
2022/11/17 09:06:38;;;;;;;4.10;1.60;;;19.60;58.20;;;;;;6269143;28;20071;-69
2022/11/17 09:09:39;;;;;;;2.65;1.60;;;19.60;58.20;;;;;;6269649;28;20017;-68
2022/11/17 09:12:40;;;;;;;2.38;1.45;;;19.50;58.00;;;;;;6269340;28;20024;-68
2022/11/17 09:15:40;;;;;;;4.35;1.80;;;19.50;58.10;;;;;;6269872;28;20373;-69
2022/11/17 09:18:41;;;;;;;1.73;1.63;;;19.50;58.00;;;;;;6269339;28;20047;-67
2022/11/17 09:21:42;;;;;;;3.95;1.95;;;19.50;58.10;;;;;;6273373;28;20025;-68
2022/11/17 09:24:42;;;;;;;3.80;1.80;;;19.50;57.80;;;;;;6277353;28;20029;-69
2022/11/17 09:27:43;;;;;;;1.95;1.48;;;19.50;58.10;;;;;;6277573;28;20017;-68
2022/11/17 09:30:44;;;;;;;7.82;1.83;;;19.50;58.00;;;;;;6276812;28;20610;-69
2022/11/17 09:33:45;;;;;;;6.57;2.05;;;19.50;58.00;;;;;;6277494;28;20024;-67
2022/11/17 09:36:49;;;;;;;2.75;1.70;;;19.50;58.00;;;;;;6277511;28;20036;-68
2022/11/17 09:39:49;;;;;;;2.40;1.90;;;19.50;58.00;;;;;;6277788;28;20025;-69
2022/11/17 09:42:50;;;;;;;2.38;1.52;;;19.50;58.00;;;;;;6277544;28;20029;-68
2022/11/17 09:45:53;;;;;;;1.90;1.50;;;19.50;57.90;;;;;;6263583;28;20159;-69
2022/11/17 09:49:06;;;;;;;2.33;1.67;;;19.50;58.00;;;;;;6273104;28;20033;-68
2022/11/17 09:52:24;;;;;;;3.00;1.85;;;19.50;58.00;;;;;;6276185;28;20057;-68
2022/11/17 09:55:39;;;;;;;2.40;1.90;;;19.50;58.00;;;;;;6276168;28;20440;-69
2022/11/17 09:58:57;;;;;;;3.00;1.13;;;19.50;57.90;;;;;;6275905;28;20165;-69
2022/11/17 10:01:58;;;;;;;4.35;2.10;;;19.50;57.90;;;;;;6276009;28;20438;-69
2022/11/17 10:04:59;;;;;;;4.35;1.60;;;19.50;57.90;;;;;;6276378;28;20025;-69
2022/11/17 10:08:05;;;;;;;5.32;2.10;;;19.50;58.10;;;;;;6276371;28;20436;-68
2022/11/17 10:11:30;;;;;;;2.08;1.55;;;19.50;58.10;;;;;;6277040;28;20056;-68
2022/11/17 10:14:33;;;;;;;3.45;1.75;;;19.50;58.20;;;;;;6276691;28;20033;-68
2022/11/17 10:17:33;;;;;;;4.07;1.90;;;19.50;58.10;;;;;;6275455;28;20376;-69
2022/11/17 10:20:34;;;;;;;2.78;1.90;;;19.50;58.10;;;;;;6270347;28;20028;-69
2022/11/17 10:23:42;;;;;;;2.20;1.80;;;19.50;58.10;;;;;;6276407;28;20021;-69
2022/11/17 10:26:46;;;;;;;2.67;1.92;;;19.50;58.10;;;;;;6274953;28;20025;-67
2022/11/17 10:30:10;;;;;;;2.90;1.90;;;19.50;58.10;;;;;;6276651;28;20030;-69
2022/11/17 10:33:12;;;;;;;2.80;1.90;;;19.50;58.10;;;;;;6266701;28;20561;-69
2022/11/17 10:36:28;;;;;;;5.25;2.00;;;19.50;58.10;;;;;;6273749;28;20033;-69
2022/11/17 10:39:35;;;;;;;4.18;1.52;;;19.60;58.70;;;;;;6265812;28;20063;-68
2022/11/17 10:42:35;;;;;;;4.20;1.77;;;19.60;58.10;;;;;;6272742;28;20021;-69
2022/11/17 10:45:43;;;;;;;2.88;1.85;;;19.60;58.20;;;;;;6273699;28;20075;-69
2022/11/17 10:48:59;;;;;;;1.90;1.70;;;19.60;58.20;;;;;;6273841;28;20025;-68
2022/11/17 10:52:17;;;;;;;4.25;1.50;;;19.60;57.90;;;;;;6264553;28;20052;-68
2022/11/17 10:55:19;;;;;;;2.58;1.80;;;19.60;58.00;;;;;;6273393;28;20031;-69
2022/11/17 10:58:29;;;;;;;4.32;1.60;;;19.60;58.10;;;;;;6272573;28;20484;-69
2022/11/17 11:01:34;;;;;;;5.47;2.00;;;19.60;58.20;;;;;;6273167;28;20094;-69
2022/11/17 11:04:38;;;;;;;3.00;2.28;;;19.60;57.90;;;;;;6273004;28;20656;-69
2022/11/17 11:07:39;;;;;;;4.63;1.83;;;19.60;58.00;;;;;;6272517;28;20129;-70
2022/11/17 11:10:42;;;;;;;2.45;1.88;;;19.60;58.00;;;;;;6273460;28;20367;-69
2022/11/17 11:14:34;;;;;;;4.32;2.17;;;19.50;57.90;;;;;;6272740;28;20029;-69
2022/11/17 11:17:35;;;;;;;6.22;2.17;;;19.50;57.80;;;;;;6276300;28;20079;-68
2022/11/17 11:20:50;;;;;;;6.13;2.33;;;19.50;57.80;;;;;;6273211;28;20029;-69
2022/11/17 11:24:00;;;;;;;3.78;2.20;;;19.50;57.90;;;;;;6264302;28;20021;-69
2022/11/17 11:27:21;;;;;;;5.32;2.85;;;19.50;57.80;;;;;;6272229;28;20025;-68
2022/11/17 11:30:22;;;;;;;3.53;2.67;;;19.50;57.60;;;;;;6272887;28;20055;-69
2022/11/17 11:33:46;;;;;;;3.80;2.47;;;19.50;57.70;;;;;;6271841;28;20033;-69
2022/11/17 11:36:57;;;;;;;5.78;3.22;;;19.50;57.80;;;;;;6272845;28;20021;-69
2022/11/17 11:40:20;;;;;;;5.18;2.58;;;19.50;57.80;;;;;;6267820;28;20472;-69
2022/11/17 11:43:42;;;;;;;5.53;2.90;;;19.50;57.80;;;;;;6266854;28;20499;-68
2022/11/17 11:46:58;;;;;;;4.93;2.90;;;19.50;57.80;;;;;;6272411;28;20039;-69
2022/11/17 11:50:23;;;;;;;5.85;2.90;;;19.50;57.80;;;;;;6271786;28;20098;-69
2022/11/17 11:53:32;;;;;;;6.85;3.53;;;19.50;57.80;;;;;;6270985;28;20048;-69
2022/11/17 11:56:36;;;;;;;4.68;3.35;;;19.50;57.80;;;;;;6271097;28;20540;-69
2022/11/17 11:59:51;;;;;;;6.32;2.65;;;19.50;57.90;;;;;;6271399;28;20029;-70
2022/11/17 12:03:19;;;;;;;6.00;3.60;;;19.50;57.80;;;;;;6272234;28;20051;-69
2022/11/17 12:06:40;;;;;;;7.93;2.80;;;19.50;57.90;;;;;;6272082;28;20116;-69
2022/11/17 12:09:53;;;;;;;6.35;2.83;;;19.50;57.90;;;;;;6264636;28;20040;-70
2022/11/17 12:12:54;;;;;;;9.77;3.22;;;19.50;57.70;;;;;;6270389;28;20029;-69
2022/11/17 12:16:16;;;;;;;11.98;3.95;;;19.50;57.30;;;;;;6271654;28;20037;-69
2022/11/17 12:19:52;;;;;;;12.18;3.72;;;19.50;57.00;;;;;;6269984;28;20123;-69
2022/11/17 12:22:58;;;;;;;6.03;3.10;;;19.50;56.90;;;;;;6270632;28;20029;-69
2022/11/17 12:25:59;;;;;;;13.77;3.00;;;19.50;57.20;;;;;;6271005;28;20048;-69
2022/11/17 12:29:18;;;;;;;8.13;2.97;;;19.50;57.30;;;;;;6271452;28;20052;-69
2022/11/17 12:32:58;;;;;;;10.40;3.05;;;19.50;57.30;;;;;;6270891;28;20376;-68
2022/11/17 12:36:25;;;;;;;10.60;3.40;;;19.50;57.40;;;;;;6268954;28;20052;-69
2022/11/17 12:39:55;;;;;;;10.80;3.10;;;19.50;57.50;;;;;;6269634;28;20495;-69
2022/11/17 12:43:14;;;;;;;8.30;2.92;;;19.50;57.50;;;;;;6248677;28;20029;-69
2022/11/17 12:46:20;;;;;;;9.75;3.22;;;19.50;57.50;;;;;;6270233;28;20070;-68
2022/11/17 12:49:35;;;;;;;10.85;3.25;;;19.50;57.50;;;;;;6270690;28;20079;-68
2022/11/17 12:53:10;;;;;;;9.35;3.33;;;19.50;57.50;;;;;;6270372;28;20055;-69
2022/11/17 12:56:29;;;;;;;4.25;2.38;;;19.50;57.60;;;;;;6267711;28;20495;-69
2022/11/17 13:00:01;;;;;;;4.93;2.70;;;19.50;57.50;;;;;;6270448;28;20072;-69
2022/11/17 13:03:10;;;;;;;8.30;3.08;;;19.50;57.50;;;;;;6270098;28;20028;-69
2022/11/17 13:06:14;;;;;;;7.65;2.80;;;19.50;57.60;;;;;;6268531;28;20028;-69
2022/11/17 13:09:24;;;;;;;5.50;3.10;;;19.50;57.60;;;;;;6267901;28;20131;-67
2022/11/17 13:12:27;;;;;;;6.95;3.10;;;19.50;57.50;;;;;;6268837;28;20660;-68
2022/11/17 13:15:27;;;;;;;4.82;2.67;;;19.50;57.50;;;;;;6268150;28;20110;-68
2022/11/17 13:18:34;;;;;;;4.95;2.80;;;19.50;57.50;;;;;;6268423;28;20472;-68
2022/11/17 13:21:35;;;;;;;3.28;2.65;;;19.50;57.50;;;;;;6269009;28;20100;-68
2022/11/17 13:24:38;;;;;;;4.15;2.83;;;19.50;57.60;;;;;;6268185;28;20041;-69
2022/11/17 13:27:44;;;;;;;6.05;2.65;;;19.50;58.00;;;;;;6267369;28;20025;-68
2022/11/17 13:30:45;;;;;;;;;;;19.50;57.60;;;;;;6268678;28;20021;-69
2022/11/17 13:34:17;;;;;;;4.88;3.00;;;19.50;57.50;;;;;;6265331;28;20334;-68
2022/11/17 13:37:20;;;;;;;5.45;2.97;;;19.50;57.60;;;;;;6264807;28;20041;-68
2022/11/17 13:40:21;;;;;;;3.88;2.45;;;19.50;57.80;;;;;;6266574;28;20381;-70
2022/11/17 13:43:23;;;;;;;4.40;2.42;;;19.50;57.90;;;;;;6267959;28;20055;-68
2022/11/17 13:46:24;;;;;;;5.55;2.60;;;19.50;57.90;;;;;;6267473;28;20040;-69
2022/11/17 13:49:38;;;;;;;6.25;2.40;;;19.50;57.90;;;;;;6267763;28;20120;-69
2022/11/17 13:52:39;;;;;;;3.22;2.30;;;19.50;57.90;;;;;;6266013;28;20496;-69
2022/11/17 13:55:46;;;;;;;5.05;2.40;;;19.50;57.90;;;;;;6267161;28;20044;-69
2022/11/17 13:58:49;;;;;;;6.70;2.80;;;19.50;57.90;;;;;;6267997;28;20032;-68
2022/11/17 14:02:16;;;;;;;11.00;2.75;;;19.50;57.90;;;;;;6265680;28;20531;-68
2022/11/17 14:05:28;;;;;;;3.97;2.42;;;19.50;57.90;;;;;;6266645;28;20422;-69
2022/11/17 14:08:31;;;;;;;2.35;2.15;;;19.50;57.80;;;;;;6269978;28;20051;-67
2022/11/17 14:11:31;;;;;;;4.15;2.67;;;19.50;57.90;;;;;;6271920;28;20033;-68
2022/11/17 14:14:40;;;;;;;5.70;2.42;;;19.50;57.80;;;;;;6272134;28;20033;-68
2022/11/17 14:17:46;;;;;;;6.47;2.53;;;19.50;57.80;;;;;;6271538;28;20028;-68
2022/11/17 14:20:47;;;;;;;5.28;2.33;;;19.50;57.80;;;;;;6271446;28;20025;-68
2022/11/17 14:23:47;;;;;;;3.28;2.30;;;19.50;57.80;;;;;;6271277;28;20106;-69
2022/11/17 14:26:48;;;;;;;3.35;2.55;;;19.50;57.70;;;;;;6271720;28;20021;-69
2022/11/17 14:29:49;;;;;;;3.38;2.60;;;19.50;57.70;;;;;;6252966;28;20061;-68
2022/11/17 14:32:49;;;;;;;6.80;2.75;;;19.50;57.70;;;;;;6264820;28;20025;-68
2022/11/17 14:35:59;;;;;;;2.50;2.20;;;19.50;57.70;;;;;;6257653;28;20034;-68
2022/11/17 14:39:01;;;;;;;4.10;2.13;;;19.50;57.80;;;;;;6271288;28;20052;-68
2022/11/17 14:42:02;;;;;;;3.42;2.30;;;19.50;57.80;;;;;;6271169;28;20086;-69
2022/11/17 14:45:03;;;;;;;2.50;1.92;;;19.50;57.70;;;;;;6270714;28;20052;-68
2022/11/17 14:48:07;;;;;;;5.47;2.30;;;19.50;57.80;;;;;;6271589;28;20078;-69
2022/11/17 14:51:07;;;;;;;2.60;1.95;;;19.50;57.80;;;;;;6270196;28;20040;-69
2022/11/17 14:54:08;;;;;;;3.22;1.92;;;19.50;57.80;;;;;;6271234;28;20574;-69
2022/11/17 14:57:08;;;;;;;2.60;1.92;;;19.50;57.80;;;;;;6269928;28;20417;-68
2022/11/17 15:00:10;;;;;;;2.75;2.20;;;19.60;57.90;;;;;;6270972;28;20501;-68
2022/11/17 15:03:11;;;;;;;3.00;1.92;;;19.50;57.90;;;;;;6270511;28;20589;-69
2022/11/17 15:06:13;;;;;;;3.20;2.33;;;19.50;57.80;;;;;;6270962;28;20054;-69
2022/11/17 15:09:19;;;;;;;2.47;2.00;;;19.50;57.90;;;;;;6270228;28;20045;-68
2022/11/17 15:12:19;;;;;;;2.13;1.80;;;19.50;57.90;;;;;;6269966;28;20411;-68
2022/11/17 15:15:20;;;;;;;2.83;1.95;;;19.50;57.90;;;;;;6270203;28;20037;-68
2022/11/17 15:18:21;;;;;;;3.03;2.20;;;19.50;58.60;;;;;;6270267;28;20035;-69
2022/11/17 15:21:21;;;;;;;3.08;2.10;;;19.60;58.00;;;;;;6269872;28;20033;-69
2022/11/17 15:24:22;;;;;;;3.15;2.30;;;19.60;58.00;;;;;;6270245;28;20028;-69
2022/11/17 15:27:22;;;;;;;2.55;1.90;;;19.60;58.00;;;;;;6270228;28;20025;-69
2022/11/17 15:30:23;;;;;;;2.63;1.90;;;19.60;58.10;;;;;;6270186;28;20021;-69
2022/11/17 15:33:24;;;;;;;2.30;1.80;;;19.60;58.10;;;;;;6269999;28;20112;-67
2022/11/17 15:36:25;;;;;;;3.13;2.17;;;19.60;58.10;;;;;;6270191;28;20522;-69
2022/11/17 15:39:25;;;;;;;2.22;1.90;;;19.60;58.10;;;;;;6269405;28;20024;-69
2022/11/17 15:42:26;;;;;;;3.60;2.00;;;19.60;58.10;;;;;;6269683;28;20064;-68
2022/11/17 15:45:27;;;;;;;3.03;1.98;;;19.60;58.20;;;;;;6269395;28;20586;-68
2022/11/17 15:48:30;;;;;;;2.38;1.65;;;19.60;58.10;;;;;;6268459;28;20017;-68
2022/11/17 15:51:31;;;;;;;2.67;2.15;;;19.60;58.10;;;;;;6269036;28;20048;-68
2022/11/17 15:54:32;;;;;;;2.50;1.98;;;19.60;58.20;;;;;;6269450;28;20535;-68
2022/11/17 15:57:32;;;;;;;2.08;1.70;;;19.60;58.20;;;;;;6269655;28;20368;-68
2022/11/17 16:00:33;;;;;;;2.38;1.80;;;19.60;58.20;;;;;;6261227;28;20094;-67
2022/11/17 16:03:34;;;;;;;2.33;2.00;;;19.60;58.20;;;;;;6266551;28;20092;-69
2022/11/17 16:06:38;;;;;;;4.82;2.03;;;19.60;58.20;;;;;;6269141;28;20017;-68
2022/11/17 16:09:38;;;;;;;3.20;2.00;;;19.60;58.20;;;;;;6269809;28;20063;-68
2022/11/17 16:12:39;;;;;;;2.22;1.63;;;19.60;58.20;;;;;;6268624;28;20025;-69
2022/11/17 16:15:40;;;;;;;2.13;1.88;;;19.60;58.20;;;;;;6269161;28;20033;-69
2022/11/17 16:18:40;;;;;;;2.35;1.98;;;19.60;58.20;;;;;;6268619;28;20166;-68
2022/11/17 16:21:41;;;;;;;2.72;2.00;;;19.60;58.20;;;;;;6268819;28;20017;-68
2022/11/17 16:24:42;;;;;;;2.35;1.80;;;19.60;58.20;;;;;;6268021;28;20040;-69
2022/11/17 16:27:43;;;;;;;2.17;1.60;;;19.60;58.30;;;;;;6268924;28;20423;-68
2022/11/17 16:30:44;;;;;;;1.98;1.58;;;19.60;58.20;;;;;;6268256;28;20104;-69
2022/11/17 16:33:50;;;;;;;2.25;1.70;;;19.60;58.30;;;;;;6267892;28;20036;-69
2022/11/17 16:36:50;;;;;;;2.95;1.90;;;19.60;58.30;;;;;;6268468;28;20024;-70
2022/11/17 16:39:51;;;;;;;2.53;1.80;;;19.60;59.00;;;;;;6268129;28;20028;-69
2022/11/17 16:42:52;;;;;;;2.65;2.13;;;19.60;58.30;;;;;;6266250;28;20069;-69
2022/11/17 16:45:52;;;;;;;3.10;2.10;;;19.60;58.30;;;;;;6267232;28;20028;-69